sensor_id;sensor_type;location;lat;lon;timestamp;pressure;altitude;pressure_sealevel;temperature;humidity
69842;BME280;57138;51.326;-0.068;2023-12-14T00:00:08;99715.13;;;4.72;100.00
69842;BME280;57138;51.326;-0.068;2023-12-14T00:02:34;99714.94;;;4.65;100.00
69842;BME280;57138;51.326;-0.068;2023-12-14T00:04:59;99701.88;;;4.63;100.00
69842;BME280;57138;51.326;-0.068;2023-12-14T00:07:25;99743.13;;;4.74;100.00
69842;BME280;57138;51.326;-0.068;2023-12-14T00:09:50;99751.56;;;4.78;100.00
69842;BME280;57138;51.326;-0.068;2023-12-14T00:12:15;99729.00;;;4.65;100.00
69842;BME280;57138;51.326;-0.068;2023-12-14T00:14:41;99741.28;;;4.66;100.00
69842;BME280;57138;51.326;-0.068;2023-12-14T00:17:06;99728.69;;;4.60;100.00
69842;BME280;57138;51.326;-0.068;2023-12-14T00:19:32;99759.81;;;4.83;100.00
69842;BME280;57138;51.326;-0.068;2023-12-14T00:21:57;99743.75;;;4.60;100.00
69842;BME280;57138;51.326;-0.068;2023-12-14T00:24:22;99761.47;;;4.67;100.00
69842;BME280;57138;51.326;-0.068;2023-12-14T00:26:48;99770.09;;;4.78;100.00
69842;BME280;57138;51.326;-0.068;2023-12-14T00:29:13;99785.00;;;4.79;100.00
69842;BME280;57138;51.326;-0.068;2023-12-14T00:31:39;99786.63;;;4.80;100.00
69842;BME280;57138;51.326;-0.068;2023-12-14T00:34:04;99788.63;;;4.78;100.00
69842;BME280;57138;51.326;-0.068;2023-12-14T00:36:31;99775.38;;;4.70;100.00
69842;BME280;57138;51.326;-0.068;2023-12-14T00:38:58;99771.69;;;4.62;100.00
69842;BME280;57138;51.326;-0.068;2023-12-14T00:41:23;99753.47;;;4.51;100.00
69842;BME280;57138;51.326;-0.068;2023-12-14T00:43:48;99775.69;;;4.66;100.00
69842;BME280;57138;51.326;-0.068;2023-12-14T00:46:14;99788.28;;;4.73;100.00
69842;BME280;57138;51.326;-0.068;2023-12-14T00:48:39;99792.78;;;4.72;100.00
69842;BME280;57138;51.326;-0.068;2023-12-14T00:51:05;99793.25;;;4.67;100.00
69842;BME280;57138;51.326;-0.068;2023-12-14T00:53:30;99793.91;;;4.61;100.00
69842;BME280;57138;51.326;-0.068;2023-12-14T00:55:56;99818.41;;;4.72;100.00
69842;BME280;57138;51.326;-0.068;2023-12-14T00:58:21;99784.25;;;4.52;100.00
69842;BME280;57138;51.326;-0.068;2023-12-14T01:00:47;99775.13;;;4.46;100.00
69842;BME280;57138;51.326;-0.068;2023-12-14T01:03:12;99779.59;;;4.46;100.00
69842;BME280;57138;51.326;-0.068;2023-12-14T01:05:38;99819.41;;;4.71;100.00
69842;BME280;57138;51.326;-0.068;2023-12-14T01:08:03;99796.16;;;4.56;100.00
69842;BME280;57138;51.326;-0.068;2023-12-14T01:10:29;99819.22;;;4.64;100.00
69842;BME280;57138;51.326;-0.068;2023-12-14T01:12:54;99797.50;;;4.52;100.00
69842;BME280;57138;51.326;-0.068;2023-12-14T01:15:20;99823.84;;;4.62;100.00
69842;BME280;57138;51.326;-0.068;2023-12-14T01:17:45;99838.28;;;4.76;100.00
69842;BME280;57138;51.326;-0.068;2023-12-14T01:20:11;99820.06;;;4.64;100.00
69842;BME280;57138;51.326;-0.068;2023-12-14T01:22:36;99820.38;;;4.61;100.00
69842;BME280;57138;51.326;-0.068;2023-12-14T01:25:02;99846.56;;;4.73;100.00
69842;BME280;57138;51.326;-0.068;2023-12-14T01:27:28;99855.00;;;4.76;100.00
69842;BME280;57138;51.326;-0.068;2023-12-14T01:29:53;99852.69;;;4.73;100.00
69842;BME280;57138;51.326;-0.068;2023-12-14T01:32:19;99854.97;;;4.68;100.00
69842;BME280;57138;51.326;-0.068;2023-12-14T01:34:44;99839.22;;;4.58;100.00
69842;BME280;57138;51.326;-0.068;2023-12-14T01:37:10;99858.44;;;4.68;100.00
69842;BME280;57138;51.326;-0.068;2023-12-14T01:39:35;99836.03;;;4.55;100.00
69842;BME280;57138;51.326;-0.068;2023-12-14T01:42:01;99834.91;;;4.57;100.00
69842;BME280;57138;51.326;-0.068;2023-12-14T01:44:26;99831.38;;;4.48;100.00
69842;BME280;57138;51.326;-0.068;2023-12-14T01:46:52;99858.09;;;4.63;100.00
69842;BME280;57138;51.326;-0.068;2023-12-14T01:49:17;99844.16;;;4.53;100.00
69842;BME280;57138;51.326;-0.068;2023-12-14T01:51:42;99850.13;;;4.55;100.00
69842;BME280;57138;51.326;-0.068;2023-12-14T01:54:08;99857.22;;;4.55;100.00
69842;BME280;57138;51.326;-0.068;2023-12-14T01:56:33;99870.69;;;4.61;100.00
69842;BME280;57138;51.326;-0.068;2023-12-14T01:58:59;99874.16;;;4.62;100.00
69842;BME280;57138;51.326;-0.068;2023-12-14T02:01:41;99851.91;;;4.46;100.00
69842;BME280;57138;51.326;-0.068;2023-12-14T02:04:07;99869.31;;;4.49;100.00
69842;BME280;57138;51.326;-0.068;2023-12-14T02:06:32;99844.91;;;4.37;100.00
69842;BME280;57138;51.326;-0.068;2023-12-14T02:08:58;99861.19;;;4.50;100.00
69842;BME280;57138;51.326;-0.068;2023-12-14T02:11:23;99853.72;;;4.46;100.00
69842;BME280;57138;51.326;-0.068;2023-12-14T02:13:49;99880.41;;;4.53;100.00
69842;BME280;57138;51.326;-0.068;2023-12-14T02:16:14;99869.78;;;4.44;100.00
69842;BME280;57138;51.326;-0.068;2023-12-14T02:18:40;99897.16;;;4.61;100.00
69842;BME280;57138;51.326;-0.068;2023-12-14T02:21:06;99878.22;;;4.48;100.00
69842;BME280;57138;51.326;-0.068;2023-12-14T02:23:31;99904.78;;;4.64;100.00
69842;BME280;57138;51.326;-0.068;2023-12-14T02:25:56;99889.53;;;4.58;100.00
69842;BME280;57138;51.326;-0.068;2023-12-14T02:28:23;99918.38;;;4.70;100.00
69842;BME280;57138;51.326;-0.068;2023-12-14T02:30:48;99921.34;;;4.66;100.00
69842;BME280;57138;51.326;-0.068;2023-12-14T02:33:14;99889.13;;;4.45;100.00
69842;BME280;57138;51.326;-0.068;2023-12-14T02:35:40;99927.63;;;4.65;100.00
69842;BME280;57138;51.326;-0.068;2023-12-14T02:38:05;99913.00;;;4.53;100.00
69842;BME280;57138;51.326;-0.068;2023-12-14T02:40:31;99920.47;;;4.58;100.00
69842;BME280;57138;51.326;-0.068;2023-12-14T02:42:56;99925.91;;;4.56;100.00
69842;BME280;57138;51.326;-0.068;2023-12-14T02:45:21;99944.13;;;4.59;100.00
69842;BME280;57138;51.326;-0.068;2023-12-14T02:47:47;99900.13;;;4.32;100.00
69842;BME280;57138;51.326;-0.068;2023-12-14T02:50:15;99923.38;;;4.46;100.00
69842;BME280;57138;51.326;-0.068;2023-12-14T02:52:40;99924.19;;;4.47;100.00
69842;BME280;57138;51.326;-0.068;2023-12-14T02:55:06;99943.31;;;4.59;100.00
69842;BME280;57138;51.326;-0.068;2023-12-14T02:57:31;99941.75;;;4.48;100.00
69842;BME280;57138;51.326;-0.068;2023-12-14T02:59:57;99970.00;;;4.65;100.00
69842;BME280;57138;51.326;-0.068;2023-12-14T03:02:22;99971.66;;;4.66;100.00
69842;BME280;57138;51.326;-0.068;2023-12-14T03:04:47;99951.72;;;4.54;100.00
69842;BME280;57138;51.326;-0.068;2023-12-14T03:07:13;99954.03;;;4.49;100.00
69842;BME280;57138;51.326;-0.068;2023-12-14T03:09:41;99971.63;;;4.58;100.00
69842;BME280;57138;51.326;-0.068;2023-12-14T03:12:09;99955.16;;;4.46;100.00
69842;BME280;57138;51.326;-0.068;2023-12-14T03:14:35;99950.97;;;4.44;100.00
69842;BME280;57138;51.326;-0.068;2023-12-14T03:17:00;99949.03;;;4.46;100.00
69842;BME280;57138;51.326;-0.068;2023-12-14T03:19:26;99920.94;;;4.27;100.00
69842;BME280;57138;51.326;-0.068;2023-12-14T03:21:51;99953.31;;;4.47;100.00
69842;BME280;57138;51.326;-0.068;2023-12-14T03:24:17;99935.69;;;4.29;100.00
69842;BME280;57138;51.326;-0.068;2023-12-14T03:26:43;99880.53;;;3.99;100.00
69842;BME280;57138;51.326;-0.068;2023-12-14T03:29:08;99940.00;;;4.30;100.00
69842;BME280;57138;51.326;-0.068;2023-12-14T03:31:34;99892.19;;;4.06;100.00
69842;BME280;57138;51.326;-0.068;2023-12-14T03:34:00;99924.72;;;4.24;100.00
69842;BME280;57138;51.326;-0.068;2023-12-14T03:36:26;99924.38;;;4.19;100.00
69842;BME280;57138;51.326;-0.068;2023-12-14T03:38:52;99875.50;;;3.87;100.00
69842;BME280;57138;51.326;-0.068;2023-12-14T03:41:18;99895.09;;;3.94;100.00
69842;BME280;57138;51.326;-0.068;2023-12-14T03:43:43;99924.38;;;4.01;100.00
69842;BME280;57138;51.326;-0.068;2023-12-14T03:46:10;99934.16;;;4.01;100.00
69842;BME280;57138;51.326;-0.068;2023-12-14T03:48:35;99915.13;;;3.79;100.00
69842;BME280;57138;51.326;-0.068;2023-12-14T03:51:04;99947.06;;;3.86;100.00
69842;BME280;57138;51.326;-0.068;2023-12-14T03:53:30;99929.41;;;3.68;100.00
69842;BME280;57138;51.326;-0.068;2023-12-14T03:55:58;99928.72;;;3.66;100.00
69842;BME280;57138;51.326;-0.068;2023-12-14T03:58:23;99905.28;;;3.53;100.00
69842;BME280;57138;51.326;-0.068;2023-12-14T04:00:48;99934.66;;;3.50;100.00
69842;BME280;57138;51.326;-0.068;2023-12-14T04:03:14;99928.19;;;3.45;100.00
69842;BME280;57138;51.326;-0.068;2023-12-14T04:05:40;99959.81;;;3.54;100.00
69842;BME280;57138;51.326;-0.068;2023-12-14T04:08:05;99968.06;;;3.51;100.00
69842;BME280;57138;51.326;-0.068;2023-12-14T04:10:31;99962.41;;;3.46;100.00
69842;BME280;57138;51.326;-0.068;2023-12-14T04:12:56;99989.50;;;3.48;100.00
69842;BME280;57138;51.326;-0.068;2023-12-14T04:15:21;99988.81;;;3.46;100.00
69842;BME280;57138;51.326;-0.068;2023-12-14T04:17:47;99953.47;;;3.19;100.00
69842;BME280;57138;51.326;-0.068;2023-12-14T04:20:13;99974.59;;;3.29;100.00
69842;BME280;57138;51.326;-0.068;2023-12-14T04:22:41;99983.09;;;3.23;100.00
69842;BME280;57138;51.326;-0.068;2023-12-14T04:25:07;99992.09;;;3.30;100.00
69842;BME280;57138;51.326;-0.068;2023-12-14T04:27:32;99955.94;;;3.03;100.00
69842;BME280;57138;51.326;-0.068;2023-12-14T04:29:58;99952.66;;;2.91;100.00
69842;BME280;57138;51.326;-0.068;2023-12-14T04:32:24;99983.44;;;3.10;100.00
69842;BME280;57138;51.326;-0.068;2023-12-14T04:34:49;99975.97;;;3.05;100.00
69842;BME280;57138;51.326;-0.068;2023-12-14T04:37:14;99980.69;;;3.02;100.00
69842;BME280;57138;51.326;-0.068;2023-12-14T04:39:40;100019.00;;;3.16;100.00
69842;BME280;57138;51.326;-0.068;2023-12-14T04:42:05;100004.59;;;3.00;100.00
69842;BME280;57138;51.326;-0.068;2023-12-14T04:44:31;99974.50;;;2.83;100.00
69842;BME280;57138;51.326;-0.068;2023-12-14T04:46:56;100007.09;;;3.02;100.00
69842;BME280;57138;51.326;-0.068;2023-12-14T04:49:22;100010.72;;;3.01;100.00
69842;BME280;57138;51.326;-0.068;2023-12-14T04:51:47;100002.81;;;3.01;100.00
69842;BME280;57138;51.326;-0.068;2023-12-14T04:54:12;100029.84;;;3.13;100.00
69842;BME280;57138;51.326;-0.068;2023-12-14T04:56:38;100032.34;;;3.14;100.00
69842;BME280;57138;51.326;-0.068;2023-12-14T04:59:03;100033.75;;;3.18;100.00
69842;BME280;57138;51.326;-0.068;2023-12-14T05:01:28;100008.22;;;2.99;100.00
69842;BME280;57138;51.326;-0.068;2023-12-14T05:03:54;100023.06;;;3.10;100.00
69842;BME280;57138;51.326;-0.068;2023-12-14T05:06:20;100032.75;;;3.19;100.00
69842;BME280;57138;51.326;-0.068;2023-12-14T05:08:46;100027.66;;;3.08;100.00
69842;BME280;57138;51.326;-0.068;2023-12-14T05:11:14;100051.81;;;3.23;100.00
69842;BME280;57138;51.326;-0.068;2023-12-14T05:13:40;100049.06;;;3.15;100.00
69842;BME280;57138;51.326;-0.068;2023-12-14T05:16:06;100031.00;;;3.00;100.00
69842;BME280;57138;51.326;-0.068;2023-12-14T05:18:32;100054.06;;;3.08;100.00
69842;BME280;57138;51.326;-0.068;2023-12-14T05:20:59;100056.56;;;3.10;100.00
69842;BME280;57138;51.326;-0.068;2023-12-14T05:23:24;100035.06;;;2.95;100.00
69842;BME280;57138;51.326;-0.068;2023-12-14T05:25:50;100046.72;;;3.02;100.00
69842;BME280;57138;51.326;-0.068;2023-12-14T05:28:15;100059.63;;;3.05;100.00
69842;BME280;57138;51.326;-0.068;2023-12-14T05:30:41;100036.63;;;2.87;100.00
69842;BME280;57138;51.326;-0.068;2023-12-14T05:33:07;100077.66;;;3.19;100.00
69842;BME280;57138;51.326;-0.068;2023-12-14T05:35:32;100074.34;;;3.17;100.00
69842;BME280;57138;51.326;-0.068;2023-12-14T05:37:57;100069.06;;;3.17;100.00
69842;BME280;57138;51.326;-0.068;2023-12-14T05:40:23;100066.16;;;3.11;100.00
69842;BME280;57138;51.326;-0.068;2023-12-14T05:42:48;100087.13;;;3.22;100.00
69842;BME280;57138;51.326;-0.068;2023-12-14T05:45:14;100089.63;;;3.23;100.00
69842;BME280;57138;51.326;-0.068;2023-12-14T05:47:39;100080.91;;;3.13;100.00
69842;BME280;57138;51.326;-0.068;2023-12-14T05:50:07;100070.50;;;3.02;100.00
69842;BME280;57138;51.326;-0.068;2023-12-14T05:52:34;100075.22;;;2.98;100.00
69842;BME280;57138;51.326;-0.068;2023-12-14T05:54:59;100061.19;;;2.98;100.00
69842;BME280;57138;51.326;-0.068;2023-12-14T05:57:25;100054.13;;;2.88;100.00
69842;BME280;57138;51.326;-0.068;2023-12-14T05:59:51;100074.69;;;2.95;100.00
69842;BME280;57138;51.326;-0.068;2023-12-14T06:02:16;100055.25;;;2.86;100.00
69842;BME280;57138;51.326;-0.068;2023-12-14T06:04:42;100090.75;;;3.11;100.00
69842;BME280;57138;51.326;-0.068;2023-12-14T06:07:07;100092.44;;;3.12;100.00
69842;BME280;57138;51.326;-0.068;2023-12-14T06:09:33;100061.34;;;2.96;100.00
69842;BME280;57138;51.326;-0.068;2023-12-14T06:12:01;100069.56;;;2.93;100.00
69842;BME280;57138;51.326;-0.068;2023-12-14T06:14:27;100076.75;;;3.01;100.00
69842;BME280;57138;51.326;-0.068;2023-12-14T06:16:53;100060.78;;;2.93;100.00
69842;BME280;57138;51.326;-0.068;2023-12-14T06:19:18;100080.22;;;3.01;100.00
69842;BME280;57138;51.326;-0.068;2023-12-14T06:21:44;100113.28;;;3.15;100.00
69842;BME280;57138;51.326;-0.068;2023-12-14T06:24:09;100123.56;;;3.18;100.00
69842;BME280;57138;51.326;-0.068;2023-12-14T06:26:35;100126.78;;;3.12;100.00
69842;BME280;57138;51.326;-0.068;2023-12-14T06:29:00;100138.56;;;3.18;100.00
69842;BME280;57138;51.326;-0.068;2023-12-14T06:31:26;100111.50;;;3.06;100.00
69842;BME280;57138;51.326;-0.068;2023-12-14T06:33:51;100106.78;;;3.00;100.00
69842;BME280;57138;51.326;-0.068;2023-12-14T06:36:17;100138.44;;;3.19;100.00
69842;BME280;57138;51.326;-0.068;2023-12-14T06:38:43;100139.41;;;3.18;100.00
69842;BME280;57138;51.326;-0.068;2023-12-14T06:41:13;100117.22;;;3.01;100.00
69842;BME280;57138;51.326;-0.068;2023-12-14T06:43:43;100116.09;;;3.04;100.00
69842;BME280;57138;51.326;-0.068;2023-12-14T06:46:08;100112.75;;;3.02;100.00
69842;BME280;57138;51.326;-0.068;2023-12-14T06:48:34;100110.66;;;2.96;100.00
69842;BME280;57138;51.326;-0.068;2023-12-14T06:50:59;100142.63;;;3.12;100.00
69842;BME280;57138;51.326;-0.068;2023-12-14T06:53:24;100130.28;;;3.03;100.00
69842;BME280;57138;51.326;-0.068;2023-12-14T06:55:50;100130.00;;;3.06;100.00
69842;BME280;57138;51.326;-0.068;2023-12-14T06:58:17;100142.50;;;3.04;100.00
69842;BME280;57138;51.326;-0.068;2023-12-14T07:00:43;100130.84;;;2.97;100.00
69842;BME280;57138;51.326;-0.068;2023-12-14T07:03:08;100132.22;;;3.01;100.00
69842;BME280;57138;51.326;-0.068;2023-12-14T07:05:33;100132.09;;;3.02;100.00
69842;BME280;57138;51.326;-0.068;2023-12-14T07:07:59;100148.09;;;3.01;100.00
69842;BME280;57138;51.326;-0.068;2023-12-14T07:10:24;100142.66;;;3.02;100.00
69842;BME280;57138;51.326;-0.068;2023-12-14T07:12:50;100168.09;;;3.13;100.00
69842;BME280;57138;51.326;-0.068;2023-12-14T07:15:15;100162.78;;;3.03;100.00
69842;BME280;57138;51.326;-0.068;2023-12-14T07:17:41;100178.66;;;3.13;100.00
69842;BME280;57138;51.326;-0.068;2023-12-14T07:20:07;100177.25;;;3.09;100.00
69842;BME280;57138;51.326;-0.068;2023-12-14T07:22:32;100169.91;;;3.03;100.00
69842;BME280;57138;51.326;-0.068;2023-12-14T07:24:58;100174.75;;;3.08;100.00
69842;BME280;57138;51.326;-0.068;2023-12-14T07:27:23;100160.16;;;2.94;100.00
69842;BME280;57138;51.326;-0.068;2023-12-14T07:29:49;100170.84;;;3.02;100.00
69842;BME280;57138;51.326;-0.068;2023-12-14T07:32:14;100187.53;;;3.12;100.00
69842;BME280;57138;51.326;-0.068;2023-12-14T07:34:40;100155.84;;;2.93;100.00
69842;BME280;57138;51.326;-0.068;2023-12-14T07:37:05;100178.22;;;3.08;100.00
69842;BME280;57138;51.326;-0.068;2023-12-14T07:39:31;100206.16;;;3.20;100.00
69842;BME280;57138;51.326;-0.068;2023-12-14T07:41:57;100205.88;;;3.23;100.00
69842;BME280;57138;51.326;-0.068;2023-12-14T07:44:22;100185.59;;;3.14;100.00
69842;BME280;57138;51.326;-0.068;2023-12-14T07:46:50;100185.88;;;3.11;100.00
69842;BME280;57138;51.326;-0.068;2023-12-14T07:49:16;100191.16;;;3.11;100.00
69842;BME280;57138;51.326;-0.068;2023-12-14T07:51:46;100193.50;;;3.14;100.00
69842;BME280;57138;51.326;-0.068;2023-12-14T07:54:11;100208.41;;;3.15;100.00
69842;BME280;57138;51.326;-0.068;2023-12-14T07:56:36;100168.94;;;3.04;100.00
69842;BME280;57138;51.326;-0.068;2023-12-14T07:59:02;100196.69;;;3.18;100.00
69842;BME280;57138;51.326;-0.068;2023-12-14T08:01:31;100161.56;;;2.98;100.00
69842;BME280;57138;51.326;-0.068;2023-12-14T08:03:57;100196.97;;;3.24;100.00
69842;BME280;57138;51.326;-0.068;2023-12-14T08:06:22;100193.63;;;3.22;100.00
69842;BME280;57138;51.326;-0.068;2023-12-14T08:08:47;100157.50;;;3.03;100.00
69842;BME280;57138;51.326;-0.068;2023-12-14T08:11:13;100216.72;;;3.40;100.00
69842;BME280;57138;51.326;-0.068;2023-12-14T08:13:38;100196.41;;;3.21;100.00
69842;BME280;57138;51.326;-0.068;2023-12-14T08:16:04;100240.75;;;3.47;100.00
69842;BME280;57138;51.326;-0.068;2023-12-14T08:18:29;100178.09;;;3.10;100.00
69842;BME280;57138;51.326;-0.068;2023-12-14T08:20:55;100222.00;;;3.30;100.00
69842;BME280;57138;51.326;-0.068;2023-12-14T08:23:20;100213.81;;;3.23;100.00
69842;BME280;57138;51.326;-0.068;2023-12-14T08:25:46;100233.53;;;3.39;100.00
69842;BME280;57138;51.326;-0.068;2023-12-14T08:28:11;100195.88;;;3.17;100.00
69842;BME280;57138;51.326;-0.068;2023-12-14T08:30:37;100167.28;;;2.93;100.00
69842;BME280;57138;51.326;-0.068;2023-12-14T08:33:04;100223.66;;;3.31;100.00
69842;BME280;57138;51.326;-0.068;2023-12-14T08:35:29;100199.78;;;3.13;100.00
69842;BME280;57138;51.326;-0.068;2023-12-14T08:37:55;100243.13;;;3.40;100.00
69842;BME280;57138;51.326;-0.068;2023-12-14T08:40:20;100247.00;;;3.46;100.00
69842;BME280;57138;51.326;-0.068;2023-12-14T08:42:47;100219.91;;;3.34;100.00
69842;BME280;57138;51.326;-0.068;2023-12-14T08:45:12;100241.19;;;3.42;100.00
69842;BME280;57138;51.326;-0.068;2023-12-14T08:47:38;100207.84;;;3.21;100.00
69842;BME280;57138;51.326;-0.068;2023-12-14T08:50:04;100215.88;;;3.30;100.00
69842;BME280;57138;51.326;-0.068;2023-12-14T08:52:30;100241.59;;;3.47;100.00
69842;BME280;57138;51.326;-0.068;2023-12-14T08:54:55;100221.56;;;3.35;100.00
69842;BME280;57138;51.326;-0.068;2023-12-14T08:57:21;100238.00;;;3.38;100.00
69842;BME280;57138;51.326;-0.068;2023-12-14T08:59:46;100222.56;;;3.34;100.00
69842;BME280;57138;51.326;-0.068;2023-12-14T09:02:12;100255.91;;;3.54;100.00
69842;BME280;57138;51.326;-0.068;2023-12-14T09:04:37;100247.03;;;3.36;100.00
69842;BME280;57138;51.326;-0.068;2023-12-14T09:07:03;100223.66;;;3.31;100.00
69842;BME280;57138;51.326;-0.068;2023-12-14T09:09:29;100232.03;;;3.27;100.00
69842;BME280;57138;51.326;-0.068;2023-12-14T09:11:54;100253.00;;;3.48;100.00
69842;BME280;57138;51.326;-0.068;2023-12-14T09:14:20;100253.97;;;3.47;100.00
69842;BME280;57138;51.326;-0.068;2023-12-14T09:16:46;100245.66;;;3.41;100.00
69842;BME280;57138;51.326;-0.068;2023-12-14T09:19:12;100258.56;;;3.54;100.00
69842;BME280;57138;51.326;-0.068;2023-12-14T09:21:37;100226.72;;;3.46;100.00
69842;BME280;57138;51.326;-0.068;2023-12-14T09:24:03;100267.00;;;3.77;100.00
69842;BME280;57138;51.326;-0.068;2023-12-14T09:26:28;100278.69;;;3.75;100.00
69842;BME280;57138;51.326;-0.068;2023-12-14T09:28:54;100264.06;;;3.71;100.00
69842;BME280;57138;51.326;-0.068;2023-12-14T09:31:19;100249.50;;;3.67;100.00
69842;BME280;57138;51.326;-0.068;2023-12-14T09:33:45;100248.63;;;3.76;100.00
69842;BME280;57138;51.326;-0.068;2023-12-14T09:36:10;100259.72;;;3.89;100.00
69842;BME280;57138;51.326;-0.068;2023-12-14T09:38:36;100227.19;;;3.69;100.00
69842;BME280;57138;51.326;-0.068;2023-12-14T09:41:01;100247.19;;;3.82;100.00
69842;BME280;57138;51.326;-0.068;2023-12-14T09:43:27;100246.41;;;3.71;100.00
69842;BME280;57138;51.326;-0.068;2023-12-14T09:45:54;100277.16;;;3.82;100.00
69842;BME280;57138;51.326;-0.068;2023-12-14T09:48:22;100272.50;;;3.94;100.00
69842;BME280;57138;51.326;-0.068;2023-12-14T09:50:48;100268.78;;;3.87;100.00
69842;BME280;57138;51.326;-0.068;2023-12-14T09:53:14;100294.34;;;4.06;100.00
69842;BME280;57138;51.326;-0.068;2023-12-14T09:55:40;100236.63;;;3.82;100.00
69842;BME280;57138;51.326;-0.068;2023-12-14T09:58:05;100254.41;;;3.89;100.00
69842;BME280;57138;51.326;-0.068;2023-12-14T10:00:39;100284.16;;;4.11;100.00
69842;BME280;57138;51.326;-0.068;2023-12-14T10:03:25;100302.66;;;4.11;100.00
69842;BME280;57138;51.326;-0.068;2023-12-14T10:05:53;100281.69;;;4.00;100.00
69842;BME280;57138;51.326;-0.068;2023-12-14T10:08:19;100285.97;;;4.10;100.00
69842;BME280;57138;51.326;-0.068;2023-12-14T10:10:46;100260.81;;;3.96;100.00
69842;BME280;57138;51.326;-0.068;2023-12-14T10:13:14;100297.22;;;4.12;100.00
69842;BME280;57138;51.326;-0.068;2023-12-14T10:15:44;100309.97;;;4.27;100.00
69842;BME280;57138;51.326;-0.068;2023-12-14T10:18:10;100309.25;;;4.35;100.00
69842;BME280;57138;51.326;-0.068;2023-12-14T10:20:36;100307.31;;;4.37;100.00
69842;BME280;57138;51.326;-0.068;2023-12-14T10:23:06;100309.56;;;4.31;100.00
69842;BME280;57138;51.326;-0.068;2023-12-14T10:25:32;100274.38;;;4.21;100.00
69842;BME280;57138;51.326;-0.068;2023-12-14T10:27:58;100312.03;;;4.43;100.00
69842;BME280;57138;51.326;-0.068;2023-12-14T10:30:30;100277.41;;;4.26;100.00
69842;BME280;57138;51.326;-0.068;2023-12-14T10:33:06;100294.38;;;4.34;100.00
69842;BME280;57138;51.326;-0.068;2023-12-14T10:35:31;100309.09;;;4.46;100.00
69842;BME280;57138;51.326;-0.068;2023-12-14T10:38:02;100290.16;;;4.41;100.00
69842;BME280;57138;51.326;-0.068;2023-12-14T10:40:28;100263.78;;;4.21;100.00
69842;BME280;57138;51.326;-0.068;2023-12-14T10:42:55;100318.09;;;4.53;100.00
69842;BME280;57138;51.326;-0.068;2023-12-14T10:45:28;100276.00;;;4.22;100.00
69842;BME280;57138;51.326;-0.068;2023-12-14T10:47:54;100263.09;;;4.19;100.00
69842;BME280;57138;51.326;-0.068;2023-12-14T10:50:23;100274.31;;;4.31;100.00
69842;BME280;57138;51.326;-0.068;2023-12-14T10:52:50;100314.09;;;4.49;100.00
69842;BME280;57138;51.326;-0.068;2023-12-14T10:55:22;100296.59;;;4.38;100.00
69842;BME280;57138;51.326;-0.068;2023-12-14T10:57:53;100295.94;;;4.26;100.00
69842;BME280;57138;51.326;-0.068;2023-12-14T11:00:19;100319.69;;;4.46;100.00
69842;BME280;57138;51.326;-0.068;2023-12-14T11:02:47;100279.41;;;4.14;100.00
69842;BME280;57138;51.326;-0.068;2023-12-14T11:05:15;100301.75;;;4.40;100.00
69842;BME280;57138;51.326;-0.068;2023-12-14T11:07:46;100307.94;;;4.48;100.00
69842;BME280;57138;51.326;-0.068;2023-12-14T11:10:13;100313.81;;;4.52;100.00
69842;BME280;57138;51.326;-0.068;2023-12-14T11:12:55;100298.88;;;4.51;100.00
69842;BME280;57138;51.326;-0.068;2023-12-14T11:15:23;100313.50;;;4.55;100.00
69842;BME280;57138;51.326;-0.068;2023-12-14T11:23:32;100292.06;;;4.48;100.00
69842;BME280;57138;51.326;-0.068;2023-12-14T11:25:59;100296.25;;;4.51;100.00
69842;BME280;57138;51.326;-0.068;2023-12-14T11:28:26;100312.63;;;4.64;100.00
69842;BME280;57138;51.326;-0.068;2023-12-14T11:30:53;100316.63;;;4.68;100.00
69842;BME280;57138;51.326;-0.068;2023-12-14T11:33:21;100229.38;;;4.21;100.00
69842;BME280;57138;51.326;-0.068;2023-12-14T11:35:47;100268.78;;;4.52;100.00
69842;BME280;57138;51.326;-0.068;2023-12-14T11:38:16;100201.38;;;4.19;100.00
69842;BME280;57138;51.326;-0.068;2023-12-14T11:40:45;100201.38;;;4.19;100.00
69842;BME280;57138;51.326;-0.068;2023-12-14T11:43:15;100260.00;;;4.52;100.00
69842;BME280;57138;51.326;-0.068;2023-12-14T11:45:41;100296.66;;;4.74;100.00
69842;BME280;57138;51.326;-0.068;2023-12-14T11:48:08;100227.50;;;4.31;100.00
69842;BME280;57138;51.326;-0.068;2023-12-14T11:50:39;100259.16;;;4.51;100.00
69842;BME280;57138;51.326;-0.068;2023-12-14T11:53:07;100234.75;;;4.29;100.00
69842;BME280;57138;51.326;-0.068;2023-12-14T11:55:37;100197.25;;;4.16;100.00
69842;BME280;57138;51.326;-0.068;2023-12-14T11:58:04;100246.38;;;4.46;100.00
69842;BME280;57138;51.326;-0.068;2023-12-14T12:00:31;100231.91;;;4.41;100.00
69842;BME280;57138;51.326;-0.068;2023-12-14T12:03:18;100292.06;;;4.76;100.00
69842;BME280;57138;51.326;-0.068;2023-12-14T12:05:49;100186.94;;;4.13;100.00
69842;BME280;57138;51.326;-0.068;2023-12-14T12:08:20;100291.59;;;4.81;100.00
69842;BME280;57138;51.326;-0.068;2023-12-14T12:10:46;100173.16;;;4.09;100.00
69842;BME280;57138;51.326;-0.068;2023-12-14T12:13:16;100214.38;;;4.40;100.00
69842;BME280;57138;51.326;-0.068;2023-12-14T12:15:43;100190.72;;;4.28;100.00
69842;BME280;57138;51.326;-0.068;2023-12-14T12:18:15;100161.00;;;4.17;100.00
69842;BME280;57138;51.326;-0.068;2023-12-14T12:20:42;100218.19;;;4.55;100.00
69842;BME280;57138;51.326;-0.068;2023-12-14T12:23:07;100166.00;;;4.20;100.00
69842;BME280;57138;51.326;-0.068;2023-12-14T12:25:33;100272.16;;;4.90;100.00
69842;BME280;57138;51.326;-0.068;2023-12-14T12:28:00;100246.19;;;4.76;100.00
69842;BME280;57138;51.326;-0.068;2023-12-14T12:30:29;100187.00;;;4.49;100.00
69842;BME280;57138;51.326;-0.068;2023-12-14T12:32:55;100263.91;;;4.93;100.00
69842;BME280;57138;51.326;-0.068;2023-12-14T12:35:22;100210.63;;;4.60;100.00
69842;BME280;57138;51.326;-0.068;2023-12-14T12:37:48;100274.50;;;4.93;100.00
69842;BME280;57138;51.326;-0.068;2023-12-14T12:40:23;100259.22;;;4.87;100.00
69842;BME280;57138;51.326;-0.068;2023-12-14T12:42:51;100274.72;;;5.00;100.00